Portada
METAR-TAF:

METAR-TAF

Aeropuertos :

Aeropuerto Vanguardia

Villavicencio, Colombia

latitud: 04-10N, longitud: 073-37W, altitud: 423 m

Observación

El informe se hizo hace 59 minutos, a las 13:00 UTC
Viento 10 kt del este-noreste
Temperatura 22°C
Humedad 94%
Presión 1018 hPa
Visibilidad: 4000 m
Cielo nuboso a una altura de 1000 ft
Nubes dispersas a una altura de 8000 ft
lluvia

METAR: SKVV 171300Z 07010KT 4000 RA BKN010 SCT080 22/21 A3006

Hora: 08:59 (13:59 UTC)


TAF: falta

Observaciones y pronósticos meteorológicos de más de 4000 aeropuertos (mensajes METAR y TAF).

Los puntos amarillos y rojos representan las estaciones disponibles.

Ponga el ratón en el punto deseado para ver el nombre de la estación.

Haga clic para ver las observaciones y los pronósticos meteorológicos.

Para cambiar el mapa : haga clic en los botones verdes con una cruz de color negro para hacer un zoom, en el botón verde con un guión para alejar o en las flechas verdes para mapas adyacentes.


METAR-TAF: